Time;durP1;ratioP1;P1;durP2;ratioP2;P2;SDS_P1;SDS_P2;PMS_P1;PMS_P2;Temp;Humidity;BMP_temperature;BMP_pressure;BME280_temperature;BME280_humidity;BME280_pressure;Samples;Min_cycle;Max_cycle;Signal;HPM_P1;HPM_P2
2023/12/16 00:00:19;;;;;;;10.18;3.85;;;;;;;;;;5133127;27;20486;-55
2023/12/16 00:02:46;;;;;;;8.77;4.22;;;;;;;;;;5144443;27;20055;-56
2023/12/16 00:05:12;;;;;;;9.65;4.00;;;;;;;;;;5138529;27;20051;-54
2023/12/16 00:07:41;;;;;;;10.25;3.83;;;;;;;;;;5140680;27;20406;-55
2023/12/16 00:10:09;;;;;;;11.50;3.95;;;;;;;;;;5134036;27;20062;-56
2023/12/16 00:12:36;;;;;;;8.38;4.30;;;;;;;;;;5136473;27;20062;-56
2023/12/16 00:15:04;;;;;;;12.35;4.13;;;;;;;;;;5151678;27;20054;-53
2023/12/16 00:17:32;;;;;;;11.77;3.88;;;;;;;;;;5147884;27;20051;-56
2023/12/16 00:19:58;;;;;;;8.23;3.88;;;;;;;;;;5132938;27;20129;-56
2023/12/16 00:22:26;;;;;;;9.13;3.78;;;;;;;;;;5136524;27;20384;-55
2023/12/16 00:24:54;;;;;;;7.97;4.10;;;;;;;;;;5143385;27;20165;-56
2023/12/16 00:27:21;;;;;;;13.23;3.83;;;;;;;;;;5137626;27;20070;-55
2023/12/16 00:29:48;;;;;;;10.20;4.40;;;;;;;;;;5144540;27;20053;-54
2023/12/16 00:32:15;;;;;;;10.68;4.15;;;;;;;;;;5137341;27;20411;-55
2023/12/16 00:34:42;;;;;;;9.20;4.95;;;;;;;;;;5137059;27;20407;-55
2023/12/16 00:37:09;;;;;;;13.25;4.80;;;;;;;;;;5147012;27;20488;-55
2023/12/16 00:39:36;;;;;;;10.75;4.43;;;;;;;;;;5136200;27;20051;-55
2023/12/16 00:42:04;;;;;;;10.93;4.30;;;;;;;;;;5137329;27;20054;-56
2023/12/16 00:44:33;;;;;;;10.30;4.47;;;;;;;;;;5150418;27;20047;-54
2023/12/16 00:47:00;;;;;;;12.88;4.97;;;;;;;;;;5139860;27;20054;-57
2023/12/16 00:49:27;;;;;;;12.45;4.57;;;;;;;;;;5145051;27;20403;-56
2023/12/16 00:51:55;;;;;;;9.43;4.88;;;;;;;;;;5136423;27;20047;-56
2023/12/16 00:54:22;;;;;;;9.70;4.43;;;;;;;;;;5144390;27;20053;-55
2023/12/16 00:56:49;;;;;;;13.35;5.53;;;;;;;;;;5146217;27;20059;-54
2023/12/16 00:59:17;;;;;;;12.68;4.68;;;;;;;;;;5135249;27;20054;-57
2023/12/16 01:01:44;;;;;;;11.32;4.60;;;;;;;;;;5133254;27;20055;-55
2023/12/16 01:04:11;;;;;;;17.17;5.32;;;;;;;;;;5143431;27;20062;-55
2023/12/16 01:06:38;;;;;;;12.50;5.13;;;;;;;;;;5141276;27;20065;-57
2023/12/16 01:09:04;;;;;;;11.55;5.03;;;;;;;;;;5147835;27;20051;-55
2023/12/16 01:11:31;;;;;;;12.95;5.32;;;;;;;;;;5149304;27;20065;-56
2023/12/16 01:13:58;;;;;;;15.63;6.10;;;;;;;;;;5149488;27;20069;-55
2023/12/16 01:16:27;;;;;;;11.10;5.90;;;;;;;;;;5153448;27;20054;-55
2023/12/16 01:18:54;;;;;;;12.13;5.25;;;;;;;;;;5151727;27;20059;-56
2023/12/16 01:21:21;;;;;;;13.32;5.55;;;;;;;;;;5143253;27;20511;-55
2023/12/16 01:23:48;;;;;;;12.82;5.38;;;;;;;;;;5143533;27;20051;-57
2023/12/16 01:26:14;;;;;;;11.63;5.30;;;;;;;;;;5140453;27;20038;-56
2023/12/16 01:28:41;;;;;;;12.38;5.38;;;;;;;;;;5152373;27;20488;-55
2023/12/16 01:31:08;;;;;;;17.52;5.97;;;;;;;;;;5150255;27;20051;-54
2023/12/16 01:33:37;;;;;;;14.45;5.90;;;;;;;;;;5151760;27;20073;-55
2023/12/16 01:36:04;;;;;;;13.75;5.93;;;;;;;;;;5156233;27;20054;-53
2023/12/16 01:38:31;;;;;;;13.75;6.05;;;;;;;;;;5148272;27;20057;-54
2023/12/16 01:40:58;;;;;;;14.93;5.68;;;;;;;;;;5149875;27;20047;-53
2023/12/16 01:43:25;;;;;;;14.52;6.05;;;;;;;;;;5138739;27;20051;-56
2023/12/16 01:45:57;;;;;;;15.30;5.60;;;;;;;;;;5142058;27;20051;-54
2023/12/16 01:48:24;;;;;;;14.60;6.07;;;;;;;;;;5145711;27;20491;-55
2023/12/16 01:50:52;;;;;;;12.27;5.95;;;;;;;;;;5134306;27;20051;-54
2023/12/16 01:53:19;;;;;;;14.70;6.25;;;;;;;;;;5146839;27;20054;-58
2023/12/16 01:55:46;;;;;;;12.65;5.80;;;;;;;;;;5138084;27;20385;-55
2023/12/16 01:58:13;;;;;;;11.00;5.72;;;;;;;;;;5136940;27;20047;-55
2023/12/16 02:00:39;;;;;;;13.73;6.22;;;;;;;;;;5134736;27;20054;-54
2023/12/16 02:03:06;;;;;;;11.82;5.72;;;;;;;;;;5144241;27;20055;-55
2023/12/16 02:05:33;;;;;;;12.88;5.85;;;;;;;;;;5138930;27;20050;-53
2023/12/16 02:08:02;;;;;;;14.85;5.72;;;;;;;;;;5133843;27;20055;-56
2023/12/16 02:10:28;;;;;;;11.82;5.68;;;;;;;;;;5136259;27;20055;-55
2023/12/16 02:12:55;;;;;;;14.07;6.22;;;;;;;;;;5150725;27;20051;-56
2023/12/16 02:15:25;;;;;;;11.18;5.72;;;;;;;;;;5146869;27;20047;-54
2023/12/16 02:17:52;;;;;;;10.63;5.40;;;;;;;;;;5148377;27;20047;-56
2023/12/16 02:20:18;;;;;;;13.07;6.45;;;;;;;;;;5134279;27;20523;-56
2023/12/16 02:22:46;;;;;;;14.48;5.57;;;;;;;;;;5145294;27;20051;-57
2023/12/16 02:25:15;;;;;;;16.15;6.45;;;;;;;;;;5139101;27;20043;-55
2023/12/16 02:27:41;;;;;;;12.75;5.80;;;;;;;;;;5146734;27;20061;-55
2023/12/16 02:30:09;;;;;;;13.80;5.70;;;;;;;;;;5148691;27;20051;-56
2023/12/16 02:32:36;;;;;;;14.90;5.43;;;;;;;;;;5137152;27;20413;-54
2023/12/16 02:35:03;;;;;;;12.77;5.85;;;;;;;;;;5138304;27;20395;-55
2023/12/16 02:37:30;;;;;;;13.02;5.50;;;;;;;;;;5145187;27;20403;-54
2023/12/16 02:39:57;;;;;;;14.82;5.50;;;;;;;;;;5139723;27;20460;-56
2023/12/16 02:42:25;;;;;;;12.50;5.40;;;;;;;;;;5137880;27;20058;-55
2023/12/16 02:44:51;;;;;;;15.80;5.47;;;;;;;;;;5151060;27;20056;-55
2023/12/16 02:47:18;;;;;;;11.85;5.18;;;;;;;;;;5134297;27;20184;-54
2023/12/16 02:49:45;;;;;;;14.00;5.13;;;;;;;;;;5142561;27;20050;-56
2023/12/16 02:52:12;;;;;;;13.77;5.50;;;;;;;;;;5135025;27;20070;-55
2023/12/16 02:54:39;;;;;;;11.30;5.40;;;;;;;;;;5149881;27;20486;-57
2023/12/16 02:57:05;;;;;;;12.70;5.30;;;;;;;;;;5137829;27;20043;-56
2023/12/16 02:59:34;;;;;;;14.88;5.82;;;;;;;;;;5137130;27;20383;-55
2023/12/16 03:02:01;;;;;;;13.63;5.00;;;;;;;;;;5142647;27;20043;-54
2023/12/16 03:04:27;;;;;;;11.93;5.28;;;;;;;;;;5135584;27;20055;-55
2023/12/16 03:06:54;;;;;;;10.70;4.60;;;;;;;;;;5136867;27;20043;-54
2023/12/16 03:09:21;;;;;;;14.80;5.95;;;;;;;;;;5132615;27;20058;-56
2023/12/16 03:11:49;;;;;;;17.00;5.55;;;;;;;;;;5136956;27;20043;-57
2023/12/16 03:14:16;;;;;;;12.27;4.78;;;;;;;;;;5147894;27;20054;-54
2023/12/16 03:16:45;;;;;;;10.43;4.88;;;;;;;;;;5149509;27;20053;-55
2023/12/16 03:19:11;;;;;;;13.98;5.55;;;;;;;;;;5143244;27;20042;-55
2023/12/16 03:21:38;;;;;;;10.13;4.80;;;;;;;;;;5139524;27;20051;-55
2023/12/16 03:24:05;;;;;;;12.27;4.97;;;;;;;;;;5134272;27;20047;-54
2023/12/16 03:26:32;;;;;;;10.70;4.70;;;;;;;;;;5139154;27;20055;-56
2023/12/16 03:28:59;;;;;;;12.63;5.07;;;;;;;;;;5135557;27;20066;-55
2023/12/16 03:31:26;;;;;;;11.27;4.28;;;;;;;;;;5152412;27;20051;-55
2023/12/16 03:33:54;;;;;;;12.63;4.70;;;;;;;;;;5151225;27;20065;-55
2023/12/16 03:36:21;;;;;;;11.90;4.30;;;;;;;;;;5150897;27;20051;-56
2023/12/16 03:38:47;;;;;;;12.13;4.22;;;;;;;;;;5137188;27;20070;-54
2023/12/16 03:41:14;;;;;;;10.98;4.75;;;;;;;;;;5137525;27;20472;-56
2023/12/16 03:43:41;;;;;;;11.82;4.25;;;;;;;;;;5148821;27;20047;-54
2023/12/16 03:46:08;;;;;;;10.82;3.75;;;;;;;;;;5131607;27;20058;-55
2023/12/16 03:48:35;;;;;;;11.02;4.30;;;;;;;;;;5131987;27;20055;-56
2023/12/16 03:51:04;;;;;;;12.50;4.10;;;;;;;;;;5131866;27;20043;-55
2023/12/16 03:53:30;;;;;;;10.77;3.72;;;;;;;;;;5131144;27;20085;-55
2023/12/16 03:55:57;;;;;;;13.73;4.53;;;;;;;;;;5141991;27;20055;-54
2023/12/16 03:58:24;;;;;;;13.18;4.63;;;;;;;;;;5133045;27;20487;-55
2023/12/16 04:00:51;;;;;;;9.80;3.88;;;;;;;;;;5131216;27;20074;-55
2023/12/16 04:03:18;;;;;;;12.85;4.22;;;;;;;;;;5132103;27;20051;-55
2023/12/16 04:05:44;;;;;;;11.95;4.00;;;;;;;;;;5140249;27;20403;-55
2023/12/16 04:08:12;;;;;;;11.32;3.97;;;;;;;;;;5144574;27;20046;-56
2023/12/16 04:10:39;;;;;;;10.95;4.18;;;;;;;;;;5143686;27;20043;-56
2023/12/16 04:13:06;;;;;;;8.68;3.70;;;;;;;;;;5139657;27;20051;-57
2023/12/16 04:15:33;;;;;;;13.07;4.10;;;;;;;;;;5146624;27;20047;-54
2023/12/16 04:18:00;;;;;;;14.98;4.18;;;;;;;;;;5147362;27;20062;-55
2023/12/16 04:20:28;;;;;;;13.52;4.00;;;;;;;;;;5136553;27;20055;-54
2023/12/16 04:22:55;;;;;;;7.00;3.42;;;;;;;;;;5151659;27;20487;-56
2023/12/16 04:25:23;;;;;;;15.65;4.20;;;;;;;;;;5135968;27;20047;-55
2023/12/16 04:27:50;;;;;;;13.00;3.85;;;;;;;;;;5140028;27;20509;-55
2023/12/16 04:30:17;;;;;;;10.13;3.50;;;;;;;;;;5139702;27;20066;-55
2023/12/16 04:32:43;;;;;;;11.98;4.43;;;;;;;;;;5133131;27;20054;-55
2023/12/16 04:35:10;;;;;;;7.13;3.70;;;;;;;;;;5137923;27;20058;-55
2023/12/16 04:37:37;;;;;;;11.77;4.22;;;;;;;;;;5136085;27;20051;-55
2023/12/16 04:40:05;;;;;;;10.13;4.10;;;;;;;;;;5136461;27;20066;-55
2023/12/16 04:42:33;;;;;;;7.85;3.60;;;;;;;;;;5152959;27;20063;-56
2023/12/16 04:44:59;;;;;;;9.73;4.05;;;;;;;;;;5141868;27;20605;-55
2023/12/16 04:47:26;;;;;;;9.75;3.67;;;;;;;;;;5150179;27;20505;-54
2023/12/16 04:49:53;;;;;;;11.50;4.57;;;;;;;;;;5134353;27;20047;-58
2023/12/16 04:52:20;;;;;;;10.40;3.83;;;;;;;;;;5146464;27;20050;-55
2023/12/16 04:54:47;;;;;;;10.45;3.75;;;;;;;;;;5139005;27;20514;-55
2023/12/16 04:57:14;;;;;;;13.77;4.45;;;;;;;;;;5148260;27;20073;-56
2023/12/16 04:59:42;;;;;;;11.07;3.95;;;;;;;;;;5148872;27;20510;-57
2023/12/16 05:02:09;;;;;;;8.43;3.60;;;;;;;;;;5139246;27;20043;-56
2023/12/16 05:04:36;;;;;;;10.32;3.67;;;;;;;;;;5140784;27;20054;-55
2023/12/16 05:07:02;;;;;;;8.85;3.35;;;;;;;;;;5148772;27;20407;-55
2023/12/16 05:09:29;;;;;;;11.90;3.63;;;;;;;;;;5154456;27;20065;-54
2023/12/16 05:11:57;;;;;;;7.22;3.63;;;;;;;;;;5146721;27;20047;-54
2023/12/16 05:14:24;;;;;;;10.98;4.47;;;;;;;;;;5149689;27;20062;-55
2023/12/16 05:16:54;;;;;;;14.57;3.92;;;;;;;;;;5149694;27;20047;-55
2023/12/16 05:19:20;;;;;;;10.82;4.18;;;;;;;;;;5148059;27;20051;-55
2023/12/16 05:21:47;;;;;;;12.68;4.10;;;;;;;;;;5134333;27;20039;-55
2023/12/16 05:24:15;;;;;;;11.15;3.88;;;;;;;;;;5152263;27;20046;-54
2023/12/16 05:26:42;;;;;;;11.15;3.38;;;;;;;;;;5143349;27;20054;-55
2023/12/16 05:29:09;;;;;;;9.85;3.85;;;;;;;;;;5152138;27;20044;-55
2023/12/16 05:31:35;;;;;;;14.40;4.18;;;;;;;;;;5148940;27;20066;-55
2023/12/16 05:34:04;;;;;;;12.75;3.78;;;;;;;;;;5144941;27;20043;-55
2023/12/16 05:36:30;;;;;;;10.68;3.65;;;;;;;;;;5143322;27;20055;-55
2023/12/16 05:38:57;;;;;;;12.63;3.63;;;;;;;;;;5133839;27;20047;-55
2023/12/16 05:41:24;;;;;;;9.35;3.65;;;;;;;;;;5141254;27;20051;-55
2023/12/16 05:43:51;;;;;;;11.05;3.53;;;;;;;;;;5138943;27;20059;-56
2023/12/16 05:46:17;;;;;;;9.38;3.50;;;;;;;;;;5147813;27;20058;-56
2023/12/16 05:48:44;;;;;;;10.05;3.50;;;;;;;;;;5133802;27;20047;-55
2023/12/16 05:51:12;;;;;;;13.43;3.67;;;;;;;;;;5133334;27;20051;-55
2023/12/16 05:53:39;;;;;;;11.93;4.05;;;;;;;;;;5133340;27;20054;-55
2023/12/16 05:56:06;;;;;;;9.63;3.70;;;;;;;;;;5133153;27;20054;-55
2023/12/16 05:58:33;;;;;;;10.68;4.97;;;;;;;;;;5139207;27;20054;-55
2023/12/16 06:01:00;;;;;;;13.10;4.13;;;;;;;;;;5146544;27;20051;-57
2023/12/16 06:03:27;;;;;;;10.55;4.25;;;;;;;;;;5143383;27;20512;-56
2023/12/16 06:05:54;;;;;;;15.05;4.00;;;;;;;;;;5140742;27;20070;-55
2023/12/16 06:08:22;;;;;;;10.40;3.63;;;;;;;;;;5134929;27;20063;-55
2023/12/16 06:10:49;;;;;;;10.55;3.85;;;;;;;;;;5145241;27;20046;-54
2023/12/16 06:13:16;;;;;;;9.82;4.07;;;;;;;;;;5149472;27;20054;-54
2023/12/16 06:15:43;;;;;;;10.23;3.67;;;;;;;;;;5150995;27;20054;-53
2023/12/16 06:18:09;;;;;;;8.10;3.67;;;;;;;;;;5143367;27;20047;-57
2023/12/16 06:20:36;;;;;;;9.80;3.42;;;;;;;;;;5148213;27;20488;-54
2023/12/16 06:23:03;;;;;;;11.30;4.20;;;;;;;;;;5146355;27;20380;-56
2023/12/16 06:25:31;;;;;;;13.18;4.35;;;;;;;;;;5144457;27;20047;-55
2023/12/16 06:27:58;;;;;;;9.95;3.97;;;;;;;;;;5131528;27;20066;-55
2023/12/16 06:30:25;;;;;;;10.48;4.40;;;;;;;;;;5141890;27;20384;-54
2023/12/16 06:32:51;;;;;;;8.05;3.85;;;;;;;;;;5137627;27;20055;-55
2023/12/16 06:35:18;;;;;;;10.38;3.38;;;;;;;;;;5133377;27;20407;-55
2023/12/16 06:37:45;;;;;;;10.38;3.30;;;;;;;;;;5137047;27;20043;-55
2023/12/16 06:40:12;;;;;;;9.27;4.15;;;;;;;;;;5130255;27;20634;-55
2023/12/16 06:42:40;;;;;;;11.63;4.10;;;;;;;;;;5129433;27;20047;-55
2023/12/16 06:45:08;;;;;;;10.75;3.78;;;;;;;;;;5126945;27;20054;-55
2023/12/16 06:47:35;;;;;;;13.52;3.83;;;;;;;;;;5133093;27;20046;-56
2023/12/16 06:50:02;;;;;;;10.43;3.63;;;;;;;;;;5128560;27;20411;-57
2023/12/16 06:52:29;;;;;;;8.25;3.50;;;;;;;;;;5130270;27;20498;-56
2023/12/16 06:54:56;;;;;;;11.52;3.92;;;;;;;;;;5133275;27;20051;-57
2023/12/16 06:57:23;;;;;;;11.55;3.80;;;;;;;;;;5129850;27;20054;-55
2023/12/16 06:59:51;;;;;;;11.45;4.28;;;;;;;;;;5134244;27;20050;-55
2023/12/16 07:02:18;;;;;;;7.88;3.53;;;;;;;;;;5147685;27;20050;-53
2023/12/16 07:04:45;;;;;;;12.32;3.70;;;;;;;;;;5151631;27;20414;-54
2023/12/16 07:07:11;;;;;;;10.77;4.10;;;;;;;;;;5136422;27;20085;-55
2023/12/16 07:09:39;;;;;;;11.18;3.72;;;;;;;;;;5150613;27;20411;-55
2023/12/16 07:12:07;;;;;;;13.88;4.15;;;;;;;;;;5150035;27;20035;-55
2023/12/16 07:14:34;;;;;;;15.35;4.20;;;;;;;;;;5140013;27;20073;-57
2023/12/16 07:17:02;;;;;;;10.48;4.00;;;;;;;;;;5138492;27;20046;-54
2023/12/16 07:19:30;;;;;;;12.10;3.95;;;;;;;;;;5133772;27;20077;-54
2023/12/16 07:21:56;;;;;;;10.35;4.15;;;;;;;;;;5130143;27;20051;-55
2023/12/16 07:24:23;;;;;;;11.30;3.78;;;;;;;;;;5131630;27;20043;-54
2023/12/16 07:26:50;;;;;;;10.18;3.92;;;;;;;;;;5130507;27;20503;-54
2023/12/16 07:29:17;;;;;;;11.35;3.70;;;;;;;;;;5130170;27;20047;-55
2023/12/16 07:31:46;;;;;;;13.23;3.85;;;;;;;;;;5133446;27;20062;-54
2023/12/16 07:34:13;;;;;;;;;;;;;;;;;;5137186;27;20053;-55
2023/12/16 07:36:41;;;;;;;12.02;4.32;;;;;;;;;;5130243;27;19923;-55
2023/12/16 07:39:08;;;;;;;11.57;3.95;;;;;;;;;;5128918;27;20427;-54
2023/12/16 07:41:35;;;;;;;8.77;4.38;;;;;;;;;;5135578;27;20054;-55
2023/12/16 07:44:02;;;;;;;8.18;3.75;;;;;;;;;;5132438;27;20043;-55
2023/12/16 07:46:28;;;;;;;9.90;3.70;;;;;;;;;;5141473;27;20051;-55
2023/12/16 07:48:55;;;;;;;12.75;4.47;;;;;;;;;;5152213;27;20046;-54
2023/12/16 07:51:25;;;;;;;10.98;3.70;;;;;;;;;;5137694;27;20051;-55
2023/12/16 07:53:53;;;;;;;9.10;3.50;;;;;;;;;;5148345;27;20478;-54
2023/12/16 07:56:21;;;;;;;14.10;4.05;;;;;;;;;;5158418;27;20062;-55
2023/12/16 07:58:48;;;;;;;10.13;3.55;;;;;;;;;;5148057;27;20051;-54
2023/12/16 08:01:14;;;;;;;10.57;3.83;;;;;;;;;;5149815;27;20054;-54
2023/12/16 08:03:41;;;;;;;10.77;3.72;;;;;;;;;;5137013;27;20051;-55
2023/12/16 08:06:08;;;;;;;14.07;3.97;;;;;;;;;;5148701;27;20380;-54
2023/12/16 08:08:35;;;;;;;9.93;3.72;;;;;;;;;;5157664;27;20094;-54
2023/12/16 08:11:04;;;;;;;12.02;4.43;;;;;;;;;;5144817;27;20058;-54
2023/12/16 08:13:31;;;;;;;12.23;3.85;;;;;;;;;;5137174;27;20047;-53
2023/12/16 08:15:58;;;;;;;9.45;3.78;;;;;;;;;;5137042;27;20062;-54
2023/12/16 08:18:25;;;;;;;14.07;4.07;;;;;;;;;;5156502;27;20058;-53
2023/12/16 08:20:51;;;;;;;11.90;3.60;;;;;;;;;;5155288;27;20058;-53
2023/12/16 08:23:19;;;;;;;12.90;4.00;;;;;;;;;;5150535;27;20058;-55
2023/12/16 08:25:46;;;;;;;10.95;3.80;;;;;;;;;;5152729;27;20051;-54
2023/12/16 08:28:14;;;;;;;12.43;3.75;;;;;;;;;;5138853;27;20061;-55
2023/12/16 08:30:42;;;;;;;10.88;3.63;;;;;;;;;;5149488;27;20046;-56
2023/12/16 08:33:08;;;;;;;15.40;3.90;;;;;;;;;;5142205;27;20046;-55
2023/12/16 08:35:36;;;;;;;11.32;3.95;;;;;;;;;;5157368;27;20046;-54
2023/12/16 08:38:03;;;;;;;11.13;4.20;;;;;;;;;;5139572;27;20437;-55
2023/12/16 08:40:30;;;;;;;15.48;4.65;;;;;;;;;;5142526;27;20062;-54
2023/12/16 08:42:56;;;;;;;7.88;3.65;;;;;;;;;;5153951;27;20056;-54
2023/12/16 08:45:25;;;;;;;11.18;4.18;;;;;;;;;;5157156;27;20070;-55
2023/12/16 08:47:51;;;;;;;8.93;3.88;;;;;;;;;;5143602;27;20047;-55
2023/12/16 08:50:18;;;;;;;9.75;3.50;;;;;;;;;;5136230;27;20051;-55
2023/12/16 08:52:45;;;;;;;12.73;3.83;;;;;;;;;;5144737;27;20519;-55
2023/12/16 08:55:12;;;;;;;10.75;3.78;;;;;;;;;;5146898;27;20403;-55
2023/12/16 08:57:39;;;;;;;10.32;3.45;;;;;;;;;;5138838;27;20043;-56
2023/12/16 09:00:08;;;;;;;12.68;3.92;;;;;;;;;;5157025;27;20051;-56
2023/12/16 09:02:37;;;;;;;12.97;4.43;;;;;;;;;;5137870;27;20047;-53
2023/12/16 09:05:04;;;;;;;9.07;3.95;;;;;;;;;;5142326;27;20077;-53
2023/12/16 09:07:31;;;;;;;12.13;3.95;;;;;;;;;;5144761;27;20050;-55
2023/12/16 09:09:57;;;;;;;12.38;3.63;;;;;;;;;;5156517;27;20054;-53
2023/12/16 09:12:24;;;;;;;11.68;3.90;;;;;;;;;;5145810;27;20055;-55
2023/12/16 09:14:51;;;;;;;11.98;3.80;;;;;;;;;;5135348;27;20043;-55
2023/12/16 09:17:18;;;;;;;8.95;3.05;;;;;;;;;;5139679;27;20043;-53
2023/12/16 09:19:47;;;;;;;14.02;4.07;;;;;;;;;;5135543;27;20047;-55
2023/12/16 09:22:16;;;;;;;9.63;3.70;;;;;;;;;;5134930;27;20051;-54
2023/12/16 09:24:43;;;;;;;11.30;3.60;;;;;;;;;;5139781;27;20043;-53
2023/12/16 09:27:09;;;;;;;10.80;3.33;;;;;;;;;;5142557;27;20051;-55
2023/12/16 09:29:36;;;;;;;9.40;3.42;;;;;;;;;;5143220;27;20058;-54
2023/12/16 09:32:03;;;;;;;9.88;3.53;;;;;;;;;;5151518;27;20132;-55
2023/12/16 09:34:30;;;;;;;10.27;3.38;;;;;;;;;;5155440;27;20494;-54
2023/12/16 09:36:58;;;;;;;11.80;4.22;;;;;;;;;;5142498;27;20483;-55
2023/12/16 09:39:25;;;;;;;10.05;3.55;;;;;;;;;;5138907;27;20487;-55
2023/12/16 09:41:52;;;;;;;13.18;3.97;;;;;;;;;;5142389;27;20054;-54
2023/12/16 09:44:20;;;;;;;11.55;3.60;;;;;;;;;;5138787;27;20055;-55
2023/12/16 09:46:47;;;;;;;12.63;3.22;;;;;;;;;;5148720;27;20059;-54
2023/12/16 09:49:13;;;;;;;9.02;3.67;;;;;;;;;;5150035;27;20055;-55
2023/12/16 09:51:41;;;;;;;11.75;3.63;;;;;;;;;;5143587;27;20379;-55
2023/12/16 09:54:09;;;;;;;9.82;3.40;;;;;;;;;;5153790;27;20356;-54
2023/12/16 09:56:37;;;;;;;9.55;3.35;;;;;;;;;;5140382;27;20062;-54
2023/12/16 09:59:04;;;;;;;8.45;3.00;;;;;;;;;;5136011;27;20054;-54
2023/12/16 10:01:31;;;;;;;6.47;3.17;;;;;;;;;;5155239;27;20054;-54
2023/12/16 10:03:59;;;;;;;9.48;3.35;;;;;;;;;;5142043;27;20058;-55
2023/12/16 10:06:26;;;;;;;8.90;3.30;;;;;;;;;;5134463;27;20412;-55
2023/12/16 10:08:52;;;;;;;10.00;3.90;;;;;;;;;;5140018;27;20047;-55
2023/12/16 10:11:21;;;;;;;9.50;3.55;;;;;;;;;;5138346;27;20047;-56
2023/12/16 10:13:54;;;;;;;10.15;3.60;;;;;;;;;;5155211;27;20054;-55
2023/12/16 10:16:22;;;;;;;7.90;3.13;;;;;;;;;;5146254;27;20047;-56
2023/12/16 10:18:49;;;;;;;9.30;3.22;;;;;;;;;;5134595;27;20051;-54
2023/12/16 10:21:20;;;;;;;9.73;3.45;;;;;;;;;;5149369;27;20054;-55
2023/12/16 10:23:47;;;;;;;13.93;3.63;;;;;;;;;;5155120;27;20051;-55
2023/12/16 10:26:14;;;;;;;8.63;3.58;;;;;;;;;;5155178;27;20051;-53
2023/12/16 10:28:45;;;;;;;12.90;3.95;;;;;;;;;;5144821;27;20051;-53
2023/12/16 10:31:11;;;;;;;11.30;3.78;;;;;;;;;;5134578;27;20391;-55
2023/12/16 10:33:38;;;;;;;9.65;4.10;;;;;;;;;;5133691;27;20541;-55
2023/12/16 10:36:05;;;;;;;12.15;3.53;;;;;;;;;;5134271;27;20051;-55
2023/12/16 10:38:34;;;;;;;12.40;3.30;;;;;;;;;;5134709;27;20492;-58
2023/12/16 10:41:00;;;;;;;10.48;3.45;;;;;;;;;;5134256;27;20051;-58
2023/12/16 10:43:27;;;;;;;9.55;3.78;;;;;;;;;;5146692;27;20057;-58
2023/12/16 10:45:55;;;;;;;10.45;3.80;;;;;;;;;;5154758;27;20054;-58
2023/12/16 10:48:22;;;;;;;14.75;3.90;;;;;;;;;;5148227;27;20054;-57
2023/12/16 10:50:49;;;;;;;14.63;3.63;;;;;;;;;;5147538;27;20148;-57
2023/12/16 10:53:19;;;;;;;9.50;3.33;;;;;;;;;;5154329;27;20055;-59
2023/12/16 10:55:51;;;;;;;12.38;4.05;;;;;;;;;;5133619;27;20074;-59
2023/12/16 10:58:22;;;;;;;14.27;3.80;;;;;;;;;;5133892;27;20051;-58
2023/12/16 11:00:51;;;;;;;12.85;3.72;;;;;;;;;;5142978;27;20113;-59
2023/12/16 11:03:23;;;;;;;13.82;3.75;;;;;;;;;;5131850;27;20066;-59
2023/12/16 11:05:51;;;;;;;11.07;3.63;;;;;;;;;;5137565;27;20476;-57
2023/12/16 11:08:18;;;;;;;11.70;3.25;;;;;;;;;;5145067;27;20046;-57
2023/12/16 11:10:45;;;;;;;13.43;3.80;;;;;;;;;;5151916;27;20047;-58
2023/12/16 11:13:12;;;;;;;11.25;3.38;;;;;;;;;;5152209;27;20047;-57
2023/12/16 11:15:39;;;;;;;14.40;3.95;;;;;;;;;;5148425;27;20043;-58
2023/12/16 11:18:09;;;;;;;15.45;4.80;;;;;;;;;;5140859;27;20430;-59
2023/12/16 11:20:39;;;;;;;12.98;3.80;;;;;;;;;;5154126;27;20430;-59
2023/12/16 11:23:06;;;;;;;8.80;3.85;;;;;;;;;;5140584;27;20053;-58
2023/12/16 11:25:34;;;;;;;9.23;3.42;;;;;;;;;;5135448;27;20046;-58
2023/12/16 11:28:01;;;;;;;13.52;3.72;;;;;;;;;;5136248;27;20051;-57
2023/12/16 11:30:29;;;;;;;12.30;3.75;;;;;;;;;;5141757;27;20062;-58
2023/12/16 11:32:57;;;;;;;12.88;3.85;;;;;;;;;;5148269;27;20046;-59
2023/12/16 11:35:45;;;;;;;14.52;4.53;;;;;;;;;;5153797;27;20051;-58
2023/12/16 11:38:34;;;;;;;13.93;4.70;;;;;;;;;;5131910;27;20055;-59
2023/12/16 11:41:00;;;;;;;12.60;3.30;;;;;;;;;;5148391;27;20053;-59
2023/12/16 11:43:42;;;;;;;11.40;3.63;;;;;;;;;;5147055;27;20058;-58
2023/12/16 11:46:09;;;;;;;13.15;3.88;;;;;;;;;;5139868;27;20051;-59
2023/12/16 11:48:36;;;;;;;12.90;4.07;;;;;;;;;;5133220;27;20484;-59
2023/12/16 11:51:03;;;;;;;12.35;4.15;;;;;;;;;;5132439;27;20058;-59
2023/12/16 11:53:32;;;;;;;10.65;3.78;;;;;;;;;;5132816;28;20054;-58
2023/12/16 11:56:00;;;;;;;14.20;3.63;;;;;;;;;;5133212;28;20043;-58
2023/12/16 11:58:27;;;;;;;13.70;3.90;;;;;;;;;;5132871;28;20055;-58
2023/12/16 12:00:54;;;;;;;12.38;3.50;;;;;;;;;;5133312;28;20051;-59
2023/12/16 12:03:22;;;;;;;12.35;4.18;;;;;;;;;;5147606;27;20058;-58
2023/12/16 12:05:51;;;;;;;14.13;4.10;;;;;;;;;;5153819;27;20047;-59
2023/12/16 12:08:19;;;;;;;11.55;5.05;;;;;;;;;;5153332;27;20058;-59
2023/12/16 12:10:47;;;;;;;11.93;4.07;;;;;;;;;;5153866;27;20383;-59
2023/12/16 12:13:14;;;;;;;13.50;4.63;;;;;;;;;;5153632;27;20499;-59
2023/12/16 12:15:41;;;;;;;12.18;4.68;;;;;;;;;;5153897;27;20042;-59
2023/12/16 12:18:08;;;;;;;13.90;4.43;;;;;;;;;;5153402;27;20051;-59
2023/12/16 12:20:35;;;;;;;13.15;4.63;;;;;;;;;;5136327;27;20058;-59
2023/12/16 12:23:01;;;;;;;12.43;3.58;;;;;;;;;;5132801;28;20384;-59
2023/12/16 12:25:28;;;;;;;10.80;4.05;;;;;;;;;;5133191;27;20047;-59
2023/12/16 12:27:56;;;;;;;13.52;3.65;;;;;;;;;;5136154;27;20047;-58
2023/12/16 12:30:23;;;;;;;15.52;4.28;;;;;;;;;;5136902;27;20077;-58
2023/12/16 12:32:50;;;;;;;15.80;4.68;;;;;;;;;;5135628;27;20058;-58
2023/12/16 12:35:17;;;;;;;14.65;3.72;;;;;;;;;;5135844;27;20047;-59
2023/12/16 12:37:44;;;;;;;17.02;4.13;;;;;;;;;;5135398;27;20058;-59
2023/12/16 12:40:18;;;;;;;19.58;4.50;;;;;;;;;;5155877;27;20046;-58
2023/12/16 12:42:49;;;;;;;18.90;6.53;;;;;;;;;;5149982;27;20054;-59
2023/12/16 12:45:27;;;;;;;22.65;12.60;;;;;;;;;;5136028;27;20039;-59
2023/12/16 12:47:55;;;;;;;14.93;5.05;;;;;;;;;;5151781;27;20256;-58
2023/12/16 12:50:22;;;;;;;15.35;4.43;;;;;;;;;;5156916;27;20047;-59
2023/12/16 12:52:49;;;;;;;16.10;3.65;;;;;;;;;;5146658;27;20066;-58
2023/12/16 12:55:17;;;;;;;14.65;3.25;;;;;;;;;;5142808;27;20047;-67
2023/12/16 12:57:45;;;;;;;10.98;3.83;;;;;;;;;;5139807;27;20051;-58
2023/12/16 13:00:12;;;;;;;14.02;3.67;;;;;;;;;;5136444;27;20051;-60
2023/12/16 13:02:40;;;;;;;14.82;3.83;;;;;;;;;;5139336;27;20055;-58
2023/12/16 13:05:07;;;;;;;15.93;3.97;;;;;;;;;;5151205;27;20046;-58
2023/12/16 13:07:34;;;;;;;18.02;4.38;;;;;;;;;;5154284;27;20053;-58
2023/12/16 13:10:01;;;;;;;11.57;3.17;;;;;;;;;;5148661;27;20051;-59
2023/12/16 13:12:28;;;;;;;12.10;3.50;;;;;;;;;;5144208;27;20062;-58
2023/12/16 13:14:55;;;;;;;13.27;4.45;;;;;;;;;;5153722;27;20046;-58
2023/12/16 13:17:21;;;;;;;14.45;3.75;;;;;;;;;;5136395;27;20419;-57
2023/12/16 13:19:49;;;;;;;12.68;3.25;;;;;;;;;;5138588;27;20412;-57
2023/12/16 13:22:16;;;;;;;19.77;4.70;;;;;;;;;;5138176;27;20046;-57
2023/12/16 13:24:43;;;;;;;12.48;3.88;;;;;;;;;;5140395;27;20054;-59
2023/12/16 13:27:10;;;;;;;22.65;4.70;;;;;;;;;;5150600;27;20055;-57
2023/12/16 13:29:37;;;;;;;14.13;4.05;;;;;;;;;;5146929;27;20058;-57
2023/12/16 13:32:04;;;;;;;18.33;4.57;;;;;;;;;;5138891;27;20051;-58
2023/12/16 13:34:31;;;;;;;20.15;4.97;;;;;;;;;;5148686;27;20054;-57
2023/12/16 13:36:59;;;;;;;16.67;3.95;;;;;;;;;;5150868;27;20054;-58
2023/12/16 13:39:26;;;;;;;11.10;3.70;;;;;;;;;;5151774;27;20529;-58
2023/12/16 13:41:53;;;;;;;12.40;3.85;;;;;;;;;;5154049;27;20069;-58
2023/12/16 13:44:19;;;;;;;13.32;4.30;;;;;;;;;;5146433;27;20047;-58
2023/12/16 13:46:46;;;;;;;12.68;3.80;;;;;;;;;;5134591;27;20051;-58
2023/12/16 13:49:13;;;;;;;14.07;4.30;;;;;;;;;;5141582;27;20058;-57
2023/12/16 13:51:40;;;;;;;16.10;4.50;;;;;;;;;;5154593;27;20404;-58
2023/12/16 13:54:08;;;;;;;15.77;3.83;;;;;;;;;;5140369;27;20412;-59
2023/12/16 13:56:35;;;;;;;13.98;3.67;;;;;;;;;;5139066;27;20051;-65
2023/12/16 13:59:02;;;;;;;11.20;3.47;;;;;;;;;;5144575;27;20047;-64
2023/12/16 14:01:29;;;;;;;11.00;4.03;;;;;;;;;;5136391;27;20482;-64
2023/12/16 14:03:56;;;;;;;14.35;3.88;;;;;;;;;;5134093;27;20047;-60
2023/12/16 14:06:23;;;;;;;15.05;4.07;;;;;;;;;;5141026;27;20065;-60
2023/12/16 14:08:50;;;;;;;15.27;4.13;;;;;;;;;;5147897;27;20065;-60
2023/12/16 14:11:18;;;;;;;12.77;4.03;;;;;;;;;;5137298;27;20478;-61
2023/12/16 14:13:45;;;;;;;12.50;3.60;;;;;;;;;;5139629;27;20051;-62
2023/12/16 14:16:12;;;;;;;11.10;3.72;;;;;;;;;;5145235;27;20068;-61
2023/12/16 14:18:39;;;;;;;12.05;3.80;;;;;;;;;;5151317;27;20054;-62
2023/12/16 14:21:06;;;;;;;13.70;4.25;;;;;;;;;;5155257;27;20058;-60
2023/12/16 14:23:33;;;;;;;16.23;4.35;;;;;;;;;;5155360;27;20050;-61
2023/12/16 14:26:00;;;;;;;14.15;4.25;;;;;;;;;;5155155;27;20050;-60
2023/12/16 14:28:28;;;;;;;11.40;3.65;;;;;;;;;;5155172;27;20057;-60
2023/12/16 14:30:55;;;;;;;15.02;3.88;;;;;;;;;;5155224;27;20047;-61
2023/12/16 14:33:22;;;;;;;14.93;4.97;;;;;;;;;;5155301;27;20394;-61